Terminal Aerodrome Forecast
Issued by NWS

Home | Current Version | Previous Version | Text Only | Print | Product List | Glossary On
Versions: 1 2 3 4 5 6 7 8 9 10 11 12
000
FTUS46 KHNX 281721
TAFFAT
TAF
KFAT 281721Z 2818/2918 13008KT P6SM SCT250
     FM282000 VRB04KT P6SM SCT250
     FM282300 31008KT P6SM SCT250
      TEMPO 2903/2907 31012G19KT=

USA.gov is the U.S. government's official web portal to all federal, state and local government web resources and services.